sensor_id;sensor_type;location;lat;lon;timestamp;temperature;humidity
3996;DHT22;2012;49.794;9.722;2022-07-29T00:00:58;20.60;87.50
3996;DHT22;2012;49.794;9.722;2022-07-29T00:03:25;20.40;89.20
3996;DHT22;2012;49.794;9.722;2022-07-29T00:05:52;20.30;90.30
3996;DHT22;2012;49.794;9.722;2022-07-29T00:08:19;20.30;88.80
3996;DHT22;2012;49.794;9.722;2022-07-29T00:10:46;20.40;90.20
3996;DHT22;2012;49.794;9.722;2022-07-29T00:13:13;20.40;89.60
3996;DHT22;2012;49.794;9.722;2022-07-29T00:15:40;20.50;89.70
3996;DHT22;2012;49.794;9.722;2022-07-29T00:18:06;20.30;89.40
3996;DHT22;2012;49.794;9.722;2022-07-29T00:20:33;20.00;90.80
3996;DHT22;2012;49.794;9.722;2022-07-29T00:23:00;20.10;91.30
3996;DHT22;2012;49.794;9.722;2022-07-29T00:25:27;20.20;91.60
3996;DHT22;2012;49.794;9.722;2022-07-29T00:27:53;20.10;91.50
3996;DHT22;2012;49.794;9.722;2022-07-29T00:30:20;20.00;91.80
3996;DHT22;2012;49.794;9.722;2022-07-29T00:32:47;20.00;92.50
3996;DHT22;2012;49.794;9.722;2022-07-29T00:35:14;20.00;92.70
3996;DHT22;2012;49.794;9.722;2022-07-29T00:37:59;20.00;92.90
3996;DHT22;2012;49.794;9.722;2022-07-29T00:40:27;19.90;92.80
3996;DHT22;2012;49.794;9.722;2022-07-29T00:42:54;19.80;92.40
3996;DHT22;2012;49.794;9.722;2022-07-29T00:45:21;19.90;92.50
3996;DHT22;2012;49.794;9.722;2022-07-29T00:47:48;20.00;92.20
3996;DHT22;2012;49.794;9.722;2022-07-29T00:50:16;19.90;92.30
3996;DHT22;2012;49.794;9.722;2022-07-29T00:52:43;19.80;92.80
3996;DHT22;2012;49.794;9.722;2022-07-29T00:55:12;19.80;93.50
3996;DHT22;2012;49.794;9.722;2022-07-29T00:57:40;19.60;94.20
3996;DHT22;2012;49.794;9.722;2022-07-29T01:00:09;19.50;94.90
3996;DHT22;2012;49.794;9.722;2022-07-29T01:02:37;19.60;94.20
3996;DHT22;2012;49.794;9.722;2022-07-29T01:05:05;19.40;95.10
3996;DHT22;2012;49.794;9.722;2022-07-29T01:07:34;19.30;94.90
3996;DHT22;2012;49.794;9.722;2022-07-29T01:10:03;19.40;95.40
3996;DHT22;2012;49.794;9.722;2022-07-29T01:12:32;19.40;94.80
3996;DHT22;2012;49.794;9.722;2022-07-29T01:15:01;19.50;95.40
3996;DHT22;2012;49.794;9.722;2022-07-29T01:17:33;19.60;95.60
3996;DHT22;2012;49.794;9.722;2022-07-29T01:25:57;19.40;96.90
3996;DHT22;2012;49.794;9.722;2022-07-29T01:31:20;19.60;96.10
3996;DHT22;2012;49.794;9.722;2022-07-29T01:33:57;19.60;95.30
3996;DHT22;2012;49.794;9.722;2022-07-29T01:36:35;19.40;95.50
3996;DHT22;2012;49.794;9.722;2022-07-29T01:39:15;19.40;95.50
3996;DHT22;2012;49.794;9.722;2022-07-29T01:42:32;19.50;95.00
3996;DHT22;2012;49.794;9.722;2022-07-29T01:44:45;19.40;93.90
3996;DHT22;2012;49.794;9.722;2022-07-29T01:47:19;19.50;93.50
3996;DHT22;2012;49.794;9.722;2022-07-29T01:49:55;19.40;92.60
3996;DHT22;2012;49.794;9.722;2022-07-29T01:52:34;19.40;92.80
3996;DHT22;2012;49.794;9.722;2022-07-29T01:55:09;19.40;92.30
3996;DHT22;2012;49.794;9.722;2022-07-29T01:57:39;19.40;91.80
3996;DHT22;2012;49.794;9.722;2022-07-29T02:00:08;19.40;91.80
3996;DHT22;2012;49.794;9.722;2022-07-29T02:02:38;19.50;91.60
3996;DHT22;2012;49.794;9.722;2022-07-29T02:05:07;19.50;91.40
3996;DHT22;2012;49.794;9.722;2022-07-29T02:07:37;19.40;91.30
3996;DHT22;2012;49.794;9.722;2022-07-29T02:10:06;19.40;91.80
3996;DHT22;2012;49.794;9.722;2022-07-29T02:12:34;19.50;91.70
3996;DHT22;2012;49.794;9.722;2022-07-29T02:15:03;19.40;91.60
3996;DHT22;2012;49.794;9.722;2022-07-29T02:17:39;19.40;91.40
3996;DHT22;2012;49.794;9.722;2022-07-29T02:20:08;19.40;91.90
3996;DHT22;2012;49.794;9.722;2022-07-29T02:22:37;19.30;92.10
3996;DHT22;2012;49.794;9.722;2022-07-29T02:25:06;19.30;92.90
3996;DHT22;2012;49.794;9.722;2022-07-29T02:27:40;19.20;92.50
3996;DHT22;2012;49.794;9.722;2022-07-29T02:30:08;19.10;92.60
3996;DHT22;2012;49.794;9.722;2022-07-29T02:32:38;19.10;92.90
3996;DHT22;2012;49.794;9.722;2022-07-29T02:35:07;19.10;92.60
3996;DHT22;2012;49.794;9.722;2022-07-29T02:37:36;19.00;93.00
3996;DHT22;2012;49.794;9.722;2022-07-29T02:40:04;19.00;92.90
3996;DHT22;2012;49.794;9.722;2022-07-29T02:42:36;19.10;92.40
3996;DHT22;2012;49.794;9.722;2022-07-29T02:45:05;19.00;92.80
3996;DHT22;2012;49.794;9.722;2022-07-29T02:47:39;19.00;93.30
3996;DHT22;2012;49.794;9.722;2022-07-29T02:50:29;19.00;93.90
3996;DHT22;2012;49.794;9.722;2022-07-29T02:53:02;18.90;94.60
3996;DHT22;2012;49.794;9.722;2022-07-29T02:55:34;18.70;95.80
3996;DHT22;2012;49.794;9.722;2022-07-29T02:58:15;18.70;96.20
3996;DHT22;2012;49.794;9.722;2022-07-29T03:00:46;18.50;97.40
3996;DHT22;2012;49.794;9.722;2022-07-29T03:03:16;18.50;97.40
3996;DHT22;2012;49.794;9.722;2022-07-29T03:05:44;18.50;97.90
3996;DHT22;2012;49.794;9.722;2022-07-29T03:08:12;18.50;98.60
3996;DHT22;2012;49.794;9.722;2022-07-29T03:10:42;18.60;98.60
3996;DHT22;2012;49.794;9.722;2022-07-29T03:13:10;18.60;99.10
3996;DHT22;2012;49.794;9.722;2022-07-29T03:15:39;18.50;99.00
3996;DHT22;2012;49.794;9.722;2022-07-29T03:18:06;18.40;98.70
3996;DHT22;2012;49.794;9.722;2022-07-29T03:20:33;18.40;98.60
3996;DHT22;2012;49.794;9.722;2022-07-29T03:23:00;18.40;98.90
3996;DHT22;2012;49.794;9.722;2022-07-29T03:25:27;18.30;99.10
3996;DHT22;2012;49.794;9.722;2022-07-29T03:27:53;18.40;99.20
3996;DHT22;2012;49.794;9.722;2022-07-29T03:30:20;18.40;98.70
3996;DHT22;2012;49.794;9.722;2022-07-29T03:32:49;18.40;99.30
3996;DHT22;2012;49.794;9.722;2022-07-29T03:35:18;18.20;99.90
3996;DHT22;2012;49.794;9.722;2022-07-29T03:37:49;18.20;99.90
3996;DHT22;2012;49.794;9.722;2022-07-29T03:40:21;18.30;99.90
3996;DHT22;2012;49.794;9.722;2022-07-29T03:42:51;18.30;99.90
3996;DHT22;2012;49.794;9.722;2022-07-29T03:45:21;18.30;99.90
3996;DHT22;2012;49.794;9.722;2022-07-29T03:47:59;18.30;99.90
3996;DHT22;2012;49.794;9.722;2022-07-29T03:50:29;18.20;99.90
3996;DHT22;2012;49.794;9.722;2022-07-29T03:52:57;18.10;99.90
3996;DHT22;2012;49.794;9.722;2022-07-29T03:55:25;18.10;99.90
3996;DHT22;2012;49.794;9.722;2022-07-29T03:57:53;18.10;99.90
3996;DHT22;2012;49.794;9.722;2022-07-29T04:00:23;18.10;99.90
3996;DHT22;2012;49.794;9.722;2022-07-29T04:02:50;18.10;99.90
3996;DHT22;2012;49.794;9.722;2022-07-29T04:05:18;18.00;99.90
3996;DHT22;2012;49.794;9.722;2022-07-29T04:07:46;18.10;99.90
3996;DHT22;2012;49.794;9.722;2022-07-29T04:10:13;18.00;99.90
3996;DHT22;2012;49.794;9.722;2022-07-29T04:12:42;18.00;99.90
3996;DHT22;2012;49.794;9.722;2022-07-29T04:15:09;18.10;99.90
3996;DHT22;2012;49.794;9.722;2022-07-29T04:17:36;18.00;99.90
3996;DHT22;2012;49.794;9.722;2022-07-29T04:20:04;18.00;99.90
3996;DHT22;2012;49.794;9.722;2022-07-29T04:22:31;17.90;99.90
3996;DHT22;2012;49.794;9.722;2022-07-29T04:24:58;17.90;99.90
3996;DHT22;2012;49.794;9.722;2022-07-29T04:27:29;17.90;99.90
3996;DHT22;2012;49.794;9.722;2022-07-29T04:29:56;17.90;99.90
3996;DHT22;2012;49.794;9.722;2022-07-29T04:32:24;17.90;99.90
3996;DHT22;2012;49.794;9.722;2022-07-29T04:34:51;17.90;99.90
3996;DHT22;2012;49.794;9.722;2022-07-29T04:37:17;18.00;99.90
3996;DHT22;2012;49.794;9.722;2022-07-29T04:39:44;18.00;99.90
3996;DHT22;2012;49.794;9.722;2022-07-29T04:42:11;17.90;99.90
3996;DHT22;2012;49.794;9.722;2022-07-29T04:44:38;17.90;99.90
3996;DHT22;2012;49.794;9.722;2022-07-29T04:47:08;17.70;99.90
3996;DHT22;2012;49.794;9.722;2022-07-29T04:49:38;17.50;99.90
3996;DHT22;2012;49.794;9.722;2022-07-29T04:52:05;17.70;99.90
3996;DHT22;2012;49.794;9.722;2022-07-29T04:54:32;17.90;99.90
3996;DHT22;2012;49.794;9.722;2022-07-29T04:56:59;18.00;99.90
3996;DHT22;2012;49.794;9.722;2022-07-29T04:59:26;18.00;99.90
3996;DHT22;2012;49.794;9.722;2022-07-29T05:01:53;18.00;99.90
3996;DHT22;2012;49.794;9.722;2022-07-29T05:04:20;18.00;99.90
3996;DHT22;2012;49.794;9.722;2022-07-29T05:06:47;17.90;99.90
3996;DHT22;2012;49.794;9.722;2022-07-29T05:09:14;18.00;99.90
3996;DHT22;2012;49.794;9.722;2022-07-29T05:11:40;18.10;99.90
3996;DHT22;2012;49.794;9.722;2022-07-29T05:14:07;18.20;99.90
3996;DHT22;2012;49.794;9.722;2022-07-29T05:16:34;18.20;99.90
3996;DHT22;2012;49.794;9.722;2022-07-29T05:19:01;18.20;99.90
3996;DHT22;2012;49.794;9.722;2022-07-29T05:21:28;18.30;99.90
3996;DHT22;2012;49.794;9.722;2022-07-29T05:23:55;18.60;99.90
3996;DHT22;2012;49.794;9.722;2022-07-29T05:26:21;19.00;99.90
3996;DHT22;2012;49.794;9.722;2022-07-29T05:28:48;19.30;99.90
3996;DHT22;2012;49.794;9.722;2022-07-29T05:31:15;19.40;99.90
3996;DHT22;2012;49.794;9.722;2022-07-29T05:33:42;19.50;99.90
3996;DHT22;2012;49.794;9.722;2022-07-29T05:36:09;19.70;99.90
3996;DHT22;2012;49.794;9.722;2022-07-29T05:38:36;19.80;99.40
3996;DHT22;2012;49.794;9.722;2022-07-29T05:41:04;19.80;99.00
3996;DHT22;2012;49.794;9.722;2022-07-29T05:43:32;19.70;98.20
3996;DHT22;2012;49.794;9.722;2022-07-29T05:45:59;19.50;98.80
3996;DHT22;2012;49.794;9.722;2022-07-29T05:48:26;19.50;99.20
3996;DHT22;2012;49.794;9.722;2022-07-29T05:50:53;19.40;98.40
3996;DHT22;2012;49.794;9.722;2022-07-29T05:53:20;19.30;97.90
3996;DHT22;2012;49.794;9.722;2022-07-29T05:55:48;19.20;98.40
3996;DHT22;2012;49.794;9.722;2022-07-29T05:58:15;19.10;98.40
3996;DHT22;2012;49.794;9.722;2022-07-29T06:00:42;19.10;98.40
3996;DHT22;2012;49.794;9.722;2022-07-29T06:03:09;19.20;98.80
3996;DHT22;2012;49.794;9.722;2022-07-29T06:05:36;19.40;98.00
3996;DHT22;2012;49.794;9.722;2022-07-29T06:08:03;19.30;96.40
3996;DHT22;2012;49.794;9.722;2022-07-29T06:10:32;19.20;95.50
3996;DHT22;2012;49.794;9.722;2022-07-29T06:12:59;19.30;96.60
3996;DHT22;2012;49.794;9.722;2022-07-29T06:15:25;19.30;96.30
3996;DHT22;2012;49.794;9.722;2022-07-29T06:17:52;19.30;95.70
3996;DHT22;2012;49.794;9.722;2022-07-29T06:20:30;19.50;96.70
3996;DHT22;2012;49.794;9.722;2022-07-29T06:22:58;19.70;96.00
3996;DHT22;2012;49.794;9.722;2022-07-29T06:25:26;19.70;93.90
3996;DHT22;2012;49.794;9.722;2022-07-29T06:27:56;19.90;94.50
3996;DHT22;2012;49.794;9.722;2022-07-29T06:30:22;20.00;94.40
3996;DHT22;2012;49.794;9.722;2022-07-29T06:32:49;20.20;94.30
3996;DHT22;2012;49.794;9.722;2022-07-29T06:35:16;20.20;93.10
3996;DHT22;2012;49.794;9.722;2022-07-29T06:38:03;20.30;93.50
3996;DHT22;2012;49.794;9.722;2022-07-29T06:40:50;20.40;92.00
3996;DHT22;2012;49.794;9.722;2022-07-29T06:43:36;20.70;91.80
3996;DHT22;2012;49.794;9.722;2022-07-29T06:46:20;20.70;91.40
3996;DHT22;2012;49.794;9.722;2022-07-29T06:48:48;20.70;91.80
3996;DHT22;2012;49.794;9.722;2022-07-29T06:51:16;20.70;91.30
3996;DHT22;2012;49.794;9.722;2022-07-29T06:53:49;20.90;91.00
3996;DHT22;2012;49.794;9.722;2022-07-29T06:56:29;21.00;90.00
3996;DHT22;2012;49.794;9.722;2022-07-29T06:58:55;21.00;90.30
3996;DHT22;2012;49.794;9.722;2022-07-29T07:01:22;21.00;90.10
3996;DHT22;2012;49.794;9.722;2022-07-29T07:03:49;21.10;90.00
3996;DHT22;2012;49.794;9.722;2022-07-29T07:06:16;21.20;90.40
3996;DHT22;2012;49.794;9.722;2022-07-29T07:08:43;21.30;90.20
3996;DHT22;2012;49.794;9.722;2022-07-29T07:11:10;21.30;90.10
3996;DHT22;2012;49.794;9.722;2022-07-29T07:13:36;21.40;90.90
3996;DHT22;2012;49.794;9.722;2022-07-29T07:16:04;21.40;90.20
3996;DHT22;2012;49.794;9.722;2022-07-29T07:18:30;21.40;89.50
3996;DHT22;2012;49.794;9.722;2022-07-29T07:20:57;21.40;90.10
3996;DHT22;2012;49.794;9.722;2022-07-29T07:23:24;21.40;90.00
3996;DHT22;2012;49.794;9.722;2022-07-29T07:25:51;21.50;90.00
3996;DHT22;2012;49.794;9.722;2022-07-29T07:28:18;21.50;90.20
3996;DHT22;2012;49.794;9.722;2022-07-29T07:30:51;21.50;90.20
3996;DHT22;2012;49.794;9.722;2022-07-29T07:33:18;21.60;90.60
3996;DHT22;2012;49.794;9.722;2022-07-29T07:35:44;21.60;91.10
3996;DHT22;2012;49.794;9.722;2022-07-29T07:38:11;21.70;91.30
3996;DHT22;2012;49.794;9.722;2022-07-29T07:40:38;21.80;91.20
3996;DHT22;2012;49.794;9.722;2022-07-29T07:43:05;21.90;90.20
3996;DHT22;2012;49.794;9.722;2022-07-29T07:45:32;22.10;87.90
3996;DHT22;2012;49.794;9.722;2022-07-29T07:48:04;22.10;89.50
3996;DHT22;2012;49.794;9.722;2022-07-29T07:50:31;22.10;89.70
3996;DHT22;2012;49.794;9.722;2022-07-29T07:52:58;22.20;89.60
3996;DHT22;2012;49.794;9.722;2022-07-29T07:55:25;22.20;89.20
3996;DHT22;2012;49.794;9.722;2022-07-29T07:57:56;22.30;90.20
3996;DHT22;2012;49.794;9.722;2022-07-29T08:00:22;22.30;87.80
3996;DHT22;2012;49.794;9.722;2022-07-29T08:02:49;22.50;88.60
3996;DHT22;2012;49.794;9.722;2022-07-29T08:05:17;22.50;89.60
3996;DHT22;2012;49.794;9.722;2022-07-29T08:07:46;22.60;90.10
3996;DHT22;2012;49.794;9.722;2022-07-29T08:10:15;22.60;90.20
3996;DHT22;2012;49.794;9.722;2022-07-29T08:13:06;22.70;89.70
3996;DHT22;2012;49.794;9.722;2022-07-29T08:15:33;22.80;89.80
3996;DHT22;2012;49.794;9.722;2022-07-29T08:18:00;22.90;89.00
3996;DHT22;2012;49.794;9.722;2022-07-29T08:20:35;23.00;87.70
3996;DHT22;2012;49.794;9.722;2022-07-29T08:23:03;23.00;88.90
3996;DHT22;2012;49.794;9.722;2022-07-29T08:25:30;23.10;88.00
3996;DHT22;2012;49.794;9.722;2022-07-29T08:27:59;23.20;87.20
3996;DHT22;2012;49.794;9.722;2022-07-29T08:30:25;23.30;85.60
3996;DHT22;2012;49.794;9.722;2022-07-29T08:32:52;23.50;86.60
3996;DHT22;2012;49.794;9.722;2022-07-29T08:35:22;23.50;85.90
3996;DHT22;2012;49.794;9.722;2022-07-29T08:37:50;23.60;86.60
3996;DHT22;2012;49.794;9.722;2022-07-29T08:40:17;23.60;86.80
3996;DHT22;2012;49.794;9.722;2022-07-29T08:42:44;23.60;86.60
3996;DHT22;2012;49.794;9.722;2022-07-29T08:45:11;23.80;82.30
3996;DHT22;2012;49.794;9.722;2022-07-29T08:47:39;23.80;83.40
3996;DHT22;2012;49.794;9.722;2022-07-29T08:50:09;23.80;82.70
3996;DHT22;2012;49.794;9.722;2022-07-29T08:52:39;23.80;83.90
3996;DHT22;2012;49.794;9.722;2022-07-29T08:55:08;23.80;84.60
3996;DHT22;2012;49.794;9.722;2022-07-29T08:57:37;23.80;83.40
3996;DHT22;2012;49.794;9.722;2022-07-29T09:00:17;23.80;82.40
3996;DHT22;2012;49.794;9.722;2022-07-29T09:02:47;23.90;80.40
3996;DHT22;2012;49.794;9.722;2022-07-29T09:05:18;23.90;79.10
3996;DHT22;2012;49.794;9.722;2022-07-29T09:07:45;23.90;77.10
3996;DHT22;2012;49.794;9.722;2022-07-29T09:10:14;23.80;77.80
3996;DHT22;2012;49.794;9.722;2022-07-29T09:12:41;23.80;78.30
3996;DHT22;2012;49.794;9.722;2022-07-29T09:15:08;23.90;79.10
3996;DHT22;2012;49.794;9.722;2022-07-29T09:17:44;23.90;79.50
3996;DHT22;2012;49.794;9.722;2022-07-29T09:20:14;23.80;78.80
3996;DHT22;2012;49.794;9.722;2022-07-29T09:22:41;23.70;78.40
3996;DHT22;2012;49.794;9.722;2022-07-29T09:25:08;23.60;79.40
3996;DHT22;2012;49.794;9.722;2022-07-29T09:27:35;23.60;81.10
3996;DHT22;2012;49.794;9.722;2022-07-29T09:30:07;23.60;85.90
3996;DHT22;2012;49.794;9.722;2022-07-29T09:32:55;23.60;89.10
3996;DHT22;2012;49.794;9.722;2022-07-29T09:35:24;23.60;91.20
3996;DHT22;2012;49.794;9.722;2022-07-29T09:37:52;23.60;94.90
3996;DHT22;2012;49.794;9.722;2022-07-29T09:40:22;23.60;96.40
3996;DHT22;2012;49.794;9.722;2022-07-29T09:42:50;23.60;98.60
3996;DHT22;2012;49.794;9.722;2022-07-29T09:45:27;23.60;96.80
3996;DHT22;2012;49.794;9.722;2022-07-29T09:47:55;23.70;94.40
3996;DHT22;2012;49.794;9.722;2022-07-29T09:50:40;23.90;98.00
3996;DHT22;2012;49.794;9.722;2022-07-29T09:53:08;24.20;96.60
3996;DHT22;2012;49.794;9.722;2022-07-29T09:55:48;24.40;94.90
3996;DHT22;2012;49.794;9.722;2022-07-29T09:58:21;24.40;94.20
3996;DHT22;2012;49.794;9.722;2022-07-29T10:00:50;24.60;95.10
3996;DHT22;2012;49.794;9.722;2022-07-29T10:03:17;24.80;92.80
3996;DHT22;2012;49.794;9.722;2022-07-29T10:05:48;24.80;93.60
3996;DHT22;2012;49.794;9.722;2022-07-29T10:08:29;25.00;92.20
3996;DHT22;2012;49.794;9.722;2022-07-29T10:11:15;24.80;90.20
3996;DHT22;2012;49.794;9.722;2022-07-29T10:13:44;24.80;90.00
3996;DHT22;2012;49.794;9.722;2022-07-29T10:16:11;24.80;89.30
3996;DHT22;2012;49.794;9.722;2022-07-29T10:18:43;24.90;88.90
3996;DHT22;2012;49.794;9.722;2022-07-29T10:21:10;25.10;88.90
3996;DHT22;2012;49.794;9.722;2022-07-29T10:23:58;25.30;88.70
3996;DHT22;2012;49.794;9.722;2022-07-29T10:26:28;25.30;83.10
3996;DHT22;2012;49.794;9.722;2022-07-29T10:28:55;25.40;87.70
3996;DHT22;2012;49.794;9.722;2022-07-29T10:31:29;25.80;87.30
3996;DHT22;2012;49.794;9.722;2022-07-29T10:37:03;26.00;79.70
3996;DHT22;2012;49.794;9.722;2022-07-29T10:42:21;26.20;77.80
3996;DHT22;2012;49.794;9.722;2022-07-29T10:45:01;26.30;78.60
3996;DHT22;2012;49.794;9.722;2022-07-29T10:47:30;26.70;79.70
3996;DHT22;2012;49.794;9.722;2022-07-29T10:49:58;26.80;78.30
3996;DHT22;2012;49.794;9.722;2022-07-29T10:55:42;27.20;76.60
3996;DHT22;2012;49.794;9.722;2022-07-29T10:58:14;27.30;74.10
3996;DHT22;2012;49.794;9.722;2022-07-29T11:00:44;27.30;72.70
3996;DHT22;2012;49.794;9.722;2022-07-29T11:03:47;27.30;74.60
3996;DHT22;2012;49.794;9.722;2022-07-29T11:06:19;27.40;74.70
3996;DHT22;2012;49.794;9.722;2022-07-29T11:09:16;27.60;74.70
3996;DHT22;2012;49.794;9.722;2022-07-29T11:11:45;27.70;73.40
3996;DHT22;2012;49.794;9.722;2022-07-29T11:15:03;27.60;71.90
3996;DHT22;2012;49.794;9.722;2022-07-29T11:17:05;27.90;74.70
3996;DHT22;2012;49.794;9.722;2022-07-29T11:19:34;28.00;72.60
3996;DHT22;2012;49.794;9.722;2022-07-29T11:22:08;28.20;70.70
3996;DHT22;2012;49.794;9.722;2022-07-29T11:24:35;28.10;71.30
3996;DHT22;2012;49.794;9.722;2022-07-29T11:27:16;28.20;71.70
3996;DHT22;2012;49.794;9.722;2022-07-29T11:29:56;28.40;70.90
3996;DHT22;2012;49.794;9.722;2022-07-29T11:32:36;28.70;69.70
3996;DHT22;2012;49.794;9.722;2022-07-29T11:35:23;28.80;68.80
3996;DHT22;2012;49.794;9.722;2022-07-29T11:43:58;28.40;66.30
3996;DHT22;2012;49.794;9.722;2022-07-29T11:49:23;28.40;67.10
3996;DHT22;2012;49.794;9.722;2022-07-29T11:51:59;28.40;66.60
3996;DHT22;2012;49.794;9.722;2022-07-29T11:54:33;28.50;67.70
3996;DHT22;2012;49.794;9.722;2022-07-29T11:57:20;28.90;67.00
3996;DHT22;2012;49.794;9.722;2022-07-29T11:59:47;29.20;65.90
3996;DHT22;2012;49.794;9.722;2022-07-29T12:02:14;29.20;65.20
3996;DHT22;2012;49.794;9.722;2022-07-29T12:05:02;29.20;64.90
3996;DHT22;2012;49.794;9.722;2022-07-29T12:07:37;29.20;66.40
3996;DHT22;2012;49.794;9.722;2022-07-29T12:10:07;29.40;65.10
3996;DHT22;2012;49.794;9.722;2022-07-29T12:12:51;29.60;64.60
3996;DHT22;2012;49.794;9.722;2022-07-29T12:15:19;29.20;62.70
3996;DHT22;2012;49.794;9.722;2022-07-29T12:18:15;28.90;65.90
3996;DHT22;2012;49.794;9.722;2022-07-29T12:20:45;28.90;65.50
3996;DHT22;2012;49.794;9.722;2022-07-29T12:23:12;28.80;66.20
3996;DHT22;2012;49.794;9.722;2022-07-29T12:25:43;28.50;64.60
3996;DHT22;2012;49.794;9.722;2022-07-29T12:28:15;28.40;65.70
3996;DHT22;2012;49.794;9.722;2022-07-29T12:30:53;28.30;66.50
3996;DHT22;2012;49.794;9.722;2022-07-29T12:33:25;28.20;67.20
3996;DHT22;2012;49.794;9.722;2022-07-29T12:35:57;28.10;66.40
3996;DHT22;2012;49.794;9.722;2022-07-29T12:38:40;27.90;67.60
3996;DHT22;2012;49.794;9.722;2022-07-29T12:41:07;27.80;68.20
3996;DHT22;2012;49.794;9.722;2022-07-29T12:43:34;27.80;67.70
3996;DHT22;2012;49.794;9.722;2022-07-29T12:46:12;27.60;67.50
3996;DHT22;2012;49.794;9.722;2022-07-29T12:48:42;27.50;67.60
3996;DHT22;2012;49.794;9.722;2022-07-29T12:51:11;27.50;69.20
3996;DHT22;2012;49.794;9.722;2022-07-29T12:53:40;27.50;68.40
3996;DHT22;2012;49.794;9.722;2022-07-29T12:56:15;27.40;72.20
3996;DHT22;2012;49.794;9.722;2022-07-29T12:59:19;27.30;76.90
3996;DHT22;2012;49.794;9.722;2022-07-29T13:01:48;27.20;81.30
3996;DHT22;2012;49.794;9.722;2022-07-29T13:07:03;26.80;82.90
3996;DHT22;2012;49.794;9.722;2022-07-29T13:09:43;26.80;89.30
3996;DHT22;2012;49.794;9.722;2022-07-29T13:12:12;26.50;95.80
3996;DHT22;2012;49.794;9.722;2022-07-29T13:14:44;26.30;96.40
3996;DHT22;2012;49.794;9.722;2022-07-29T13:17:12;26.00;99.90
3996;DHT22;2012;49.794;9.722;2022-07-29T13:19:40;25.60;99.90
3996;DHT22;2012;49.794;9.722;2022-07-29T13:22:15;25.50;99.90
3996;DHT22;2012;49.794;9.722;2022-07-29T13:27:21;25.20;99.90
3996;DHT22;2012;49.794;9.722;2022-07-29T13:29:48;25.10;99.90
3996;DHT22;2012;49.794;9.722;2022-07-29T13:32:18;24.90;99.90
3996;DHT22;2012;49.794;9.722;2022-07-29T13:34:57;24.90;99.90
3996;DHT22;2012;49.794;9.722;2022-07-29T13:37:25;24.80;99.90
3996;DHT22;2012;49.794;9.722;2022-07-29T13:39:52;24.70;99.90
3996;DHT22;2012;49.794;9.722;2022-07-29T13:42:20;24.60;99.90
3996;DHT22;2012;49.794;9.722;2022-07-29T13:44:47;24.80;99.90
3996;DHT22;2012;49.794;9.722;2022-07-29T13:47:18;24.90;99.90
3996;DHT22;2012;49.794;9.722;2022-07-29T13:49:45;25.00;99.90
3996;DHT22;2012;49.794;9.722;2022-07-29T13:52:12;24.70;99.90
3996;DHT22;2012;49.794;9.722;2022-07-29T13:54:38;24.60;99.90
3996;DHT22;2012;49.794;9.722;2022-07-29T13:57:08;24.60;99.90
3996;DHT22;2012;49.794;9.722;2022-07-29T13:59:37;24.50;99.90
3996;DHT22;2012;49.794;9.722;2022-07-29T14:02:04;24.40;99.90
3996;DHT22;2012;49.794;9.722;2022-07-29T14:04:32;24.30;99.90
3996;DHT22;2012;49.794;9.722;2022-07-29T14:07:00;24.20;99.90
3996;DHT22;2012;49.794;9.722;2022-07-29T14:09:30;24.30;99.90
3996;DHT22;2012;49.794;9.722;2022-07-29T14:12:07;24.40;99.90
3996;DHT22;2012;49.794;9.722;2022-07-29T14:14:34;24.30;99.90
3996;DHT22;2012;49.794;9.722;2022-07-29T14:17:03;24.40;99.90
3996;DHT22;2012;49.794;9.722;2022-07-29T14:19:30;24.20;99.90
3996;DHT22;2012;49.794;9.722;2022-07-29T14:21:58;24.20;99.90
3996;DHT22;2012;49.794;9.722;2022-07-29T14:24:25;24.10;99.90
3996;DHT22;2012;49.794;9.722;2022-07-29T14:26:52;24.00;99.90
3996;DHT22;2012;49.794;9.722;2022-07-29T14:29:19;23.90;99.90
3996;DHT22;2012;49.794;9.722;2022-07-29T14:31:46;23.90;99.90
3996;DHT22;2012;49.794;9.722;2022-07-29T14:34:13;23.90;99.90
3996;DHT22;2012;49.794;9.722;2022-07-29T14:36:42;23.80;99.90
3996;DHT22;2012;49.794;9.722;2022-07-29T14:39:08;23.70;99.90
3996;DHT22;2012;49.794;9.722;2022-07-29T14:41:35;23.80;99.90
3996;DHT22;2012;49.794;9.722;2022-07-29T14:44:02;23.70;99.90
3996;DHT22;2012;49.794;9.722;2022-07-29T14:46:29;23.70;99.90
3996;DHT22;2012;49.794;9.722;2022-07-29T14:48:56;23.80;99.90
3996;DHT22;2012;49.794;9.722;2022-07-29T14:51:22;23.90;99.90
3996;DHT22;2012;49.794;9.722;2022-07-29T14:53:57;23.90;99.90
3996;DHT22;2012;49.794;9.722;2022-07-29T14:56:24;23.80;99.90
3996;DHT22;2012;49.794;9.722;2022-07-29T14:59:11;23.70;99.90
3996;DHT22;2012;49.794;9.722;2022-07-29T15:01:38;23.60;99.90
3996;DHT22;2012;49.794;9.722;2022-07-29T15:04:04;23.50;99.90
3996;DHT22;2012;49.794;9.722;2022-07-29T15:06:31;23.30;99.90
3996;DHT22;2012;49.794;9.722;2022-07-29T15:08:58;23.20;99.90
3996;DHT22;2012;49.794;9.722;2022-07-29T15:11:25;22.70;99.90
3996;DHT22;2012;49.794;9.722;2022-07-29T15:13:51;22.70;99.90
3996;DHT22;2012;49.794;9.722;2022-07-29T15:16:18;22.60;99.90
3996;DHT22;2012;49.794;9.722;2022-07-29T15:18:45;22.70;99.90
3996;DHT22;2012;49.794;9.722;2022-07-29T15:21:12;22.80;99.90
3996;DHT22;2012;49.794;9.722;2022-07-29T15:23:38;22.80;99.90
3996;DHT22;2012;49.794;9.722;2022-07-29T15:26:05;22.70;99.90
3996;DHT22;2012;49.794;9.722;2022-07-29T15:28:32;22.80;99.90
3996;DHT22;2012;49.794;9.722;2022-07-29T15:30:59;23.00;99.90
3996;DHT22;2012;49.794;9.722;2022-07-29T15:33:25;23.10;99.90
3996;DHT22;2012;49.794;9.722;2022-07-29T15:35:52;23.10;99.90
3996;DHT22;2012;49.794;9.722;2022-07-29T15:38:19;22.90;99.90
3996;DHT22;2012;49.794;9.722;2022-07-29T15:40:54;22.70;99.90
3996;DHT22;2012;49.794;9.722;2022-07-29T15:43:21;22.60;99.90
3996;DHT22;2012;49.794;9.722;2022-07-29T15:45:48;22.50;99.90
3996;DHT22;2012;49.794;9.722;2022-07-29T15:48:37;22.40;99.90
3996;DHT22;2012;49.794;9.722;2022-07-29T15:51:04;22.50;99.90
3996;DHT22;2012;49.794;9.722;2022-07-29T15:53:31;22.50;99.90
3996;DHT22;2012;49.794;9.722;2022-07-29T15:56:00;22.50;99.90
3996;DHT22;2012;49.794;9.722;2022-07-29T15:58:27;22.40;99.90
3996;DHT22;2012;49.794;9.722;2022-07-29T16:00:54;22.20;99.90
3996;DHT22;2012;49.794;9.722;2022-07-29T16:03:21;22.10;99.90
3996;DHT22;2012;49.794;9.722;2022-07-29T16:05:48;22.10;99.90
3996;DHT22;2012;49.794;9.722;2022-07-29T16:08:15;22.00;99.90
3996;DHT22;2012;49.794;9.722;2022-07-29T16:10:41;22.30;99.90
3996;DHT22;2012;49.794;9.722;2022-07-29T16:13:08;22.20;99.90
3996;DHT22;2012;49.794;9.722;2022-07-29T16:15:35;22.10;99.90
3996;DHT22;2012;49.794;9.722;2022-07-29T16:18:02;22.00;99.90
3996;DHT22;2012;49.794;9.722;2022-07-29T16:20:29;21.90;99.90
3996;DHT22;2012;49.794;9.722;2022-07-29T16:22:55;21.80;99.90
3996;DHT22;2012;49.794;9.722;2022-07-29T16:25:22;21.80;99.90
3996;DHT22;2012;49.794;9.722;2022-07-29T16:28:09;21.80;99.90
3996;DHT22;2012;49.794;9.722;2022-07-29T16:30:36;21.80;99.90
3996;DHT22;2012;49.794;9.722;2022-07-29T16:33:02;22.00;99.90
3996;DHT22;2012;49.794;9.722;2022-07-29T16:35:33;22.00;99.90
3996;DHT22;2012;49.794;9.722;2022-07-29T16:38:05;21.90;99.90
3996;DHT22;2012;49.794;9.722;2022-07-29T16:40:32;21.80;99.90
3996;DHT22;2012;49.794;9.722;2022-07-29T16:42:59;21.70;99.90
3996;DHT22;2012;49.794;9.722;2022-07-29T16:45:25;21.80;99.90
3996;DHT22;2012;49.794;9.722;2022-07-29T16:48:08;21.90;99.90
3996;DHT22;2012;49.794;9.722;2022-07-29T16:50:36;21.90;99.90
3996;DHT22;2012;49.794;9.722;2022-07-29T16:53:03;21.70;99.90